sensor_id;sensor_type;location;lat;lon;timestamp;P1;durP1;ratioP1;P2;durP2;ratioP2
33190;SDS011;19554;42.652;23.364;2023-05-27T00:01:31;14.02;;;10.88;;
33190;SDS011;19554;42.652;23.364;2023-05-27T00:03:56;17.63;;;14.20;;
33190;SDS011;19554;42.652;23.364;2023-05-27T00:06:21;22.70;;;14.25;;
33190;SDS011;19554;42.652;23.364;2023-05-27T00:08:47;20.33;;;13.73;;
33190;SDS011;19554;42.652;23.364;2023-05-27T00:11:12;16.52;;;12.38;;
33190;SDS011;19554;42.652;23.364;2023-05-27T00:13:38;9.57;;;7.47;;
33190;SDS011;19554;42.652;23.364;2023-05-27T00:16:03;6.60;;;5.75;;
33190;SDS011;19554;42.652;23.364;2023-05-27T00:18:28;7.60;;;5.30;;
33190;SDS011;19554;42.652;23.364;2023-05-27T00:20:57;6.78;;;5.00;;
33190;SDS011;19554;42.652;23.364;2023-05-27T00:23:23;10.88;;;7.00;;
33190;SDS011;19554;42.652;23.364;2023-05-27T00:25:49;8.45;;;6.70;;
33190;SDS011;19554;42.652;23.364;2023-05-27T00:28:14;9.23;;;7.55;;
33190;SDS011;19554;42.652;23.364;2023-05-27T00:30:40;15.20;;;8.95;;
33190;SDS011;19554;42.652;23.364;2023-05-27T00:33:06;12.40;;;8.18;;
33190;SDS011;19554;42.652;23.364;2023-05-27T00:35:31;10.35;;;8.10;;
33190;SDS011;19554;42.652;23.364;2023-05-27T00:37:57;11.75;;;8.75;;
33190;SDS011;19554;42.652;23.364;2023-05-27T00:40:22;12.13;;;7.80;;
33190;SDS011;19554;42.652;23.364;2023-05-27T00:42:51;12.18;;;7.35;;
33190;SDS011;19554;42.652;23.364;2023-05-27T00:45:16;8.05;;;6.78;;
33190;SDS011;19554;42.652;23.364;2023-05-27T00:47:42;8.68;;;6.43;;
33190;SDS011;19554;42.652;23.364;2023-05-27T00:50:07;7.70;;;6.88;;
33190;SDS011;19554;42.652;23.364;2023-05-27T00:52:33;9.88;;;6.03;;
33190;SDS011;19554;42.652;23.364;2023-05-27T00:54:59;7.97;;;5.93;;
33190;SDS011;19554;42.652;23.364;2023-05-27T00:57:24;7.32;;;5.22;;
33190;SDS011;19554;42.652;23.364;2023-05-27T00:59:51;6.68;;;4.78;;
33190;SDS011;19554;42.652;23.364;2023-05-27T01:02:16;5.20;;;3.58;;
33190;SDS011;19554;42.652;23.364;2023-05-27T01:04:42;4.70;;;3.03;;
33190;SDS011;19554;42.652;23.364;2023-05-27T01:07:09;3.13;;;2.78;;
33190;SDS011;19554;42.652;23.364;2023-05-27T01:12:32;4.63;;;2.70;;
33190;SDS011;19554;42.652;23.364;2023-05-27T01:15:05;2.78;;;1.95;;
33190;SDS011;19554;42.652;23.364;2023-05-27T01:17:32;2.95;;;1.90;;
33190;SDS011;19554;42.652;23.364;2023-05-27T01:20:02;4.55;;;2.65;;
33190;SDS011;19554;42.652;23.364;2023-05-27T01:22:30;5.00;;;2.83;;
33190;SDS011;19554;42.652;23.364;2023-05-27T01:24:56;3.10;;;2.83;;
33190;SDS011;19554;42.652;23.364;2023-05-27T01:27:22;3.67;;;3.20;;
33190;SDS011;19554;42.652;23.364;2023-05-27T01:29:51;5.57;;;2.80;;
33190;SDS011;19554;42.652;23.364;2023-05-27T01:32:21;3.92;;;3.20;;
33190;SDS011;19554;42.652;23.364;2023-05-27T01:35:00;4.70;;;2.97;;
33190;SDS011;19554;42.652;23.364;2023-05-27T01:37:31;4.70;;;3.05;;
33190;SDS011;19554;42.652;23.364;2023-05-27T01:40:00;3.25;;;2.40;;
33190;SDS011;19554;42.652;23.364;2023-05-27T01:42:32;5.03;;;2.75;;
33190;SDS011;19554;42.652;23.364;2023-05-27T01:45:00;3.65;;;3.00;;
33190;SDS011;19554;42.652;23.364;2023-05-27T01:47:26;4.68;;;2.58;;
33190;SDS011;19554;42.652;23.364;2023-05-27T01:49:52;4.20;;;3.13;;
33190;SDS011;19554;42.652;23.364;2023-05-27T01:52:17;3.95;;;3.38;;
33190;SDS011;19554;42.652;23.364;2023-05-27T01:54:43;5.28;;;3.83;;
33190;SDS011;19554;42.652;23.364;2023-05-27T01:57:08;5.22;;;2.92;;
33190;SDS011;19554;42.652;23.364;2023-05-27T01:59:33;5.55;;;3.22;;
33190;SDS011;19554;42.652;23.364;2023-05-27T02:01:59;3.55;;;3.22;;
33190;SDS011;19554;42.652;23.364;2023-05-27T02:04:24;4.03;;;3.40;;
33190;SDS011;19554;42.652;23.364;2023-05-27T02:06:50;3.55;;;3.25;;
33190;SDS011;19554;42.652;23.364;2023-05-27T02:09:16;5.38;;;3.13;;
33190;SDS011;19554;42.652;23.364;2023-05-27T02:11:42;3.10;;;2.80;;
33190;SDS011;19554;42.652;23.364;2023-05-27T02:14:07;5.55;;;2.47;;
33190;SDS011;19554;42.652;23.364;2023-05-27T02:16:33;2.95;;;2.40;;
33190;SDS011;19554;42.652;23.364;2023-05-27T02:18:59;3.63;;;2.83;;
33190;SDS011;19554;42.652;23.364;2023-05-27T02:21:26;3.03;;;2.45;;
33190;SDS011;19554;42.652;23.364;2023-05-27T02:23:51;2.83;;;2.35;;
33190;SDS011;19554;42.652;23.364;2023-05-27T02:26:17;2.40;;;2.20;;
33190;SDS011;19554;42.652;23.364;2023-05-27T02:28:42;3.55;;;2.28;;
33190;SDS011;19554;42.652;23.364;2023-05-27T02:31:07;3.58;;;2.47;;
33190;SDS011;19554;42.652;23.364;2023-05-27T02:33:33;3.58;;;2.50;;
33190;SDS011;19554;42.652;23.364;2023-05-27T02:35:59;6.75;;;2.45;;
33190;SDS011;19554;42.652;23.364;2023-05-27T02:38:24;5.22;;;3.38;;
33190;SDS011;19554;42.652;23.364;2023-05-27T02:40:50;3.17;;;2.78;;
33190;SDS011;19554;42.652;23.364;2023-05-27T02:43:16;3.03;;;2.72;;
33190;SDS011;19554;42.652;23.364;2023-05-27T02:45:41;2.65;;;2.45;;
33190;SDS011;19554;42.652;23.364;2023-05-27T02:48:07;4.68;;;2.50;;
33190;SDS011;19554;42.652;23.364;2023-05-27T02:50:33;7.13;;;3.03;;
33190;SDS011;19554;42.652;23.364;2023-05-27T02:52:58;5.65;;;2.60;;
33190;SDS011;19554;42.652;23.364;2023-05-27T02:55:24;3.40;;;2.50;;
33190;SDS011;19554;42.652;23.364;2023-05-27T02:57:49;5.35;;;2.58;;
33190;SDS011;19554;42.652;23.364;2023-05-27T03:00:15;4.90;;;2.17;;
33190;SDS011;19554;42.652;23.364;2023-05-27T03:02:41;4.47;;;2.17;;
33190;SDS011;19554;42.652;23.364;2023-05-27T03:05:06;4.35;;;2.40;;
33190;SDS011;19554;42.652;23.364;2023-05-27T03:07:32;2.90;;;2.38;;
33190;SDS011;19554;42.652;23.364;2023-05-27T03:09:58;3.88;;;2.63;;
33190;SDS011;19554;42.652;23.364;2023-05-27T03:12:23;6.82;;;2.70;;
33190;SDS011;19554;42.652;23.364;2023-05-27T03:14:49;5.72;;;2.70;;
33190;SDS011;19554;42.652;23.364;2023-05-27T03:17:15;5.05;;;2.70;;
33190;SDS011;19554;42.652;23.364;2023-05-27T03:19:40;4.05;;;2.63;;
33190;SDS011;19554;42.652;23.364;2023-05-27T03:22:06;5.90;;;3.00;;
33190;SDS011;19554;42.652;23.364;2023-05-27T03:24:34;3.20;;;2.75;;
33190;SDS011;19554;42.652;23.364;2023-05-27T03:27:00;6.25;;;3.00;;
33190;SDS011;19554;42.652;23.364;2023-05-27T03:29:26;3.20;;;2.50;;
33190;SDS011;19554;42.652;23.364;2023-05-27T03:31:52;4.30;;;2.88;;
33190;SDS011;19554;42.652;23.364;2023-05-27T03:34:17;7.07;;;3.47;;
33190;SDS011;19554;42.652;23.364;2023-05-27T03:36:42;5.32;;;3.35;;
33190;SDS011;19554;42.652;23.364;2023-05-27T03:39:14;6.72;;;3.40;;
33190;SDS011;19554;42.652;23.364;2023-05-27T03:41:40;9.07;;;3.67;;
33190;SDS011;19554;42.652;23.364;2023-05-27T03:44:06;4.57;;;3.22;;
33190;SDS011;19554;42.652;23.364;2023-05-27T03:46:31;6.18;;;3.25;;
33190;SDS011;19554;42.652;23.364;2023-05-27T03:48:57;5.88;;;3.30;;
33190;SDS011;19554;42.652;23.364;2023-05-27T03:51:23;3.80;;;3.40;;
33190;SDS011;19554;42.652;23.364;2023-05-27T03:53:48;6.72;;;3.58;;
33190;SDS011;19554;42.652;23.364;2023-05-27T03:56:13;7.32;;;3.55;;
33190;SDS011;19554;42.652;23.364;2023-05-27T03:58:39;8.40;;;4.60;;
33190;SDS011;19554;42.652;23.364;2023-05-27T04:01:05;7.28;;;4.35;;
33190;SDS011;19554;42.652;23.364;2023-05-27T04:03:30;4.35;;;3.30;;
33190;SDS011;19554;42.652;23.364;2023-05-27T04:05:56;6.28;;;4.03;;
33190;SDS011;19554;42.652;23.364;2023-05-27T04:08:23;6.50;;;4.70;;
33190;SDS011;19554;42.652;23.364;2023-05-27T04:10:51;6.07;;;5.10;;
33190;SDS011;19554;42.652;23.364;2023-05-27T04:13:17;8.93;;;6.40;;
33190;SDS011;19554;42.652;23.364;2023-05-27T04:15:43;7.75;;;6.25;;
33190;SDS011;19554;42.652;23.364;2023-05-27T04:18:09;8.68;;;5.45;;
33190;SDS011;19554;42.652;23.364;2023-05-27T04:20:38;12.45;;;6.07;;
33190;SDS011;19554;42.652;23.364;2023-05-27T04:25:33;11.00;;;5.35;;
33190;SDS011;19554;42.652;23.364;2023-05-27T04:28:00;9.45;;;5.07;;
33190;SDS011;19554;42.652;23.364;2023-05-27T04:30:29;7.75;;;5.43;;
33190;SDS011;19554;42.652;23.364;2023-05-27T04:32:54;8.07;;;5.93;;
33190;SDS011;19554;42.652;23.364;2023-05-27T04:35:20;10.10;;;5.65;;
33190;SDS011;19554;42.652;23.364;2023-05-27T04:37:46;6.65;;;5.43;;
33190;SDS011;19554;42.652;23.364;2023-05-27T04:40:12;13.85;;;5.35;;
33190;SDS011;19554;42.652;23.364;2023-05-27T04:42:38;7.07;;;5.45;;
33190;SDS011;19554;42.652;23.364;2023-05-27T04:45:04;7.28;;;5.85;;
33190;SDS011;19554;42.652;23.364;2023-05-27T04:47:31;7.00;;;5.40;;
33190;SDS011;19554;42.652;23.364;2023-05-27T04:50:02;8.77;;;5.65;;
33190;SDS011;19554;42.652;23.364;2023-05-27T04:52:30;15.13;;;6.20;;
33190;SDS011;19554;42.652;23.364;2023-05-27T04:55:02;10.43;;;5.00;;
33190;SDS011;19554;42.652;23.364;2023-05-27T04:57:29;7.90;;;6.13;;
33190;SDS011;19554;42.652;23.364;2023-05-27T04:59:54;9.05;;;5.20;;
33190;SDS011;19554;42.652;23.364;2023-05-27T05:02:32;13.63;;;6.20;;
33190;SDS011;19554;42.652;23.364;2023-05-27T05:05:03;13.93;;;6.82;;
33190;SDS011;19554;42.652;23.364;2023-05-27T05:07:30;10.82;;;7.28;;
33190;SDS011;19554;42.652;23.364;2023-05-27T05:09:56;8.57;;;6.15;;
33190;SDS011;19554;42.652;23.364;2023-05-27T05:12:22;9.55;;;6.07;;
33190;SDS011;19554;42.652;23.364;2023-05-27T05:14:48;14.23;;;6.53;;
33190;SDS011;19554;42.652;23.364;2023-05-27T05:17:13;10.10;;;6.05;;
33190;SDS011;19554;42.652;23.364;2023-05-27T05:19:39;6.40;;;5.80;;
33190;SDS011;19554;42.652;23.364;2023-05-27T05:22:04;9.70;;;5.82;;
33190;SDS011;19554;42.652;23.364;2023-05-27T05:24:29;7.28;;;5.47;;
33190;SDS011;19554;42.652;23.364;2023-05-27T05:26:55;7.25;;;5.47;;
33190;SDS011;19554;42.652;23.364;2023-05-27T05:29:20;11.27;;;6.38;;
33190;SDS011;19554;42.652;23.364;2023-05-27T05:31:45;7.63;;;5.82;;
33190;SDS011;19554;42.652;23.364;2023-05-27T05:34:11;9.00;;;5.57;;
33190;SDS011;19554;42.652;23.364;2023-05-27T05:36:36;6.55;;;5.70;;
33190;SDS011;19554;42.652;23.364;2023-05-27T05:39:03;6.25;;;5.22;;
33190;SDS011;19554;42.652;23.364;2023-05-27T05:41:29;7.68;;;5.65;;
33190;SDS011;19554;42.652;23.364;2023-05-27T05:43:54;6.95;;;5.07;;
33190;SDS011;19554;42.652;23.364;2023-05-27T05:46:20;9.38;;;5.97;;
33190;SDS011;19554;42.652;23.364;2023-05-27T05:48:45;13.63;;;5.90;;
33190;SDS011;19554;42.652;23.364;2023-05-27T05:51:11;5.00;;;4.47;;
33190;SDS011;19554;42.652;23.364;2023-05-27T05:53:36;7.85;;;5.35;;
33190;SDS011;19554;42.652;23.364;2023-05-27T05:56:02;8.20;;;4.78;;
33190;SDS011;19554;42.652;23.364;2023-05-27T05:58:27;8.07;;;4.03;;
33190;SDS011;19554;42.652;23.364;2023-05-27T06:00:52;5.78;;;4.38;;
33190;SDS011;19554;42.652;23.364;2023-05-27T06:03:18;5.03;;;3.90;;
33190;SDS011;19554;42.652;23.364;2023-05-27T06:05:43;9.52;;;4.80;;
33190;SDS011;19554;42.652;23.364;2023-05-27T06:08:09;7.55;;;4.75;;
33190;SDS011;19554;42.652;23.364;2023-05-27T06:10:34;8.23;;;4.15;;
33190;SDS011;19554;42.652;23.364;2023-05-27T06:13:00;5.38;;;4.13;;
33190;SDS011;19554;42.652;23.364;2023-05-27T06:15:25;10.02;;;4.43;;
33190;SDS011;19554;42.652;23.364;2023-05-27T06:17:52;8.38;;;4.20;;
33190;SDS011;19554;42.652;23.364;2023-05-27T06:20:18;9.30;;;4.80;;
33190;SDS011;19554;42.652;23.364;2023-05-27T06:22:44;7.80;;;5.90;;
33190;SDS011;19554;42.652;23.364;2023-05-27T06:25:12;10.35;;;4.75;;
33190;SDS011;19554;42.652;23.364;2023-05-27T06:27:37;9.10;;;4.55;;
33190;SDS011;19554;42.652;23.364;2023-05-27T06:30:03;9.80;;;5.85;;
33190;SDS011;19554;42.652;23.364;2023-05-27T06:32:28;9.30;;;5.20;;
33190;SDS011;19554;42.652;23.364;2023-05-27T06:34:54;9.00;;;4.90;;
33190;SDS011;19554;42.652;23.364;2023-05-27T06:37:19;8.23;;;5.22;;
33190;SDS011;19554;42.652;23.364;2023-05-27T06:39:45;15.25;;;7.32;;
33190;SDS011;19554;42.652;23.364;2023-05-27T06:42:10;10.85;;;5.28;;
33190;SDS011;19554;42.652;23.364;2023-05-27T06:44:35;10.02;;;6.28;;
33190;SDS011;19554;42.652;23.364;2023-05-27T06:47:01;10.40;;;5.10;;
33190;SDS011;19554;42.652;23.364;2023-05-27T06:49:27;6.25;;;5.25;;
33190;SDS011;19554;42.652;23.364;2023-05-27T06:51:52;11.00;;;5.78;;
33190;SDS011;19554;42.652;23.364;2023-05-27T06:54:18;13.93;;;5.97;;
33190;SDS011;19554;42.652;23.364;2023-05-27T06:56:43;13.68;;;6.70;;
33190;SDS011;19554;42.652;23.364;2023-05-27T06:59:09;11.88;;;6.72;;
33190;SDS011;19554;42.652;23.364;2023-05-27T07:01:34;14.75;;;6.65;;
33190;SDS011;19554;42.652;23.364;2023-05-27T07:04:00;11.95;;;6.32;;
33190;SDS011;19554;42.652;23.364;2023-05-27T07:06:25;10.13;;;6.00;;
33190;SDS011;19554;42.652;23.364;2023-05-27T07:08:51;15.65;;;6.22;;
33190;SDS011;19554;42.652;23.364;2023-05-27T07:11:16;8.77;;;6.75;;
33190;SDS011;19554;42.652;23.364;2023-05-27T07:13:42;11.15;;;6.45;;
33190;SDS011;19554;42.652;23.364;2023-05-27T07:16:07;16.42;;;8.05;;
33190;SDS011;19554;42.652;23.364;2023-05-27T07:18:32;11.55;;;7.13;;
33190;SDS011;19554;42.652;23.364;2023-05-27T07:20:58;13.23;;;8.25;;
33190;SDS011;19554;42.652;23.364;2023-05-27T07:23:23;13.25;;;7.88;;
33190;SDS011;19554;42.652;23.364;2023-05-27T07:25:48;9.73;;;7.18;;
33190;SDS011;19554;42.652;23.364;2023-05-27T07:28:15;10.65;;;7.72;;
33190;SDS011;19554;42.652;23.364;2023-05-27T07:30:40;10.35;;;6.95;;
33190;SDS011;19554;42.652;23.364;2023-05-27T07:33:07;17.42;;;7.75;;
33190;SDS011;19554;42.652;23.364;2023-05-27T07:35:32;11.13;;;7.32;;
33190;SDS011;19554;42.652;23.364;2023-05-27T07:37:57;8.95;;;7.22;;
33190;SDS011;19554;42.652;23.364;2023-05-27T07:40:23;13.98;;;7.93;;
33190;SDS011;19554;42.652;23.364;2023-05-27T07:42:48;13.30;;;7.00;;
33190;SDS011;19554;42.652;23.364;2023-05-27T07:45:14;15.48;;;7.70;;
33190;SDS011;19554;42.652;23.364;2023-05-27T07:47:40;14.32;;;8.10;;
33190;SDS011;19554;42.652;23.364;2023-05-27T07:50:06;16.33;;;8.85;;
33190;SDS011;19554;42.652;23.364;2023-05-27T07:52:32;15.98;;;8.80;;
33190;SDS011;19554;42.652;23.364;2023-05-27T07:54:58;12.85;;;7.97;;
33190;SDS011;19554;42.652;23.364;2023-05-27T07:57:23;10.55;;;7.30;;
33190;SDS011;19554;42.652;23.364;2023-05-27T07:59:49;10.52;;;6.78;;
33190;SDS011;19554;42.652;23.364;2023-05-27T08:02:14;10.13;;;7.70;;
33190;SDS011;19554;42.652;23.364;2023-05-27T08:04:40;14.52;;;7.43;;
33190;SDS011;19554;42.652;23.364;2023-05-27T08:07:08;14.23;;;7.10;;
33190;SDS011;19554;42.652;23.364;2023-05-27T08:09:33;19.50;;;8.32;;
33190;SDS011;19554;42.652;23.364;2023-05-27T08:11:59;11.65;;;7.65;;
33190;SDS011;19554;42.652;23.364;2023-05-27T08:14:25;10.98;;;7.30;;
33190;SDS011;19554;42.652;23.364;2023-05-27T08:16:52;12.55;;;6.57;;
33190;SDS011;19554;42.652;23.364;2023-05-27T08:19:18;15.38;;;7.25;;
33190;SDS011;19554;42.652;23.364;2023-05-27T08:21:43;12.95;;;7.05;;
33190;SDS011;19554;42.652;23.364;2023-05-27T08:24:09;11.05;;;6.72;;
33190;SDS011;19554;42.652;23.364;2023-05-27T08:26:34;12.63;;;6.47;;
33190;SDS011;19554;42.652;23.364;2023-05-27T08:28:59;8.88;;;5.22;;
33190;SDS011;19554;42.652;23.364;2023-05-27T08:31:25;14.25;;;5.57;;
33190;SDS011;19554;42.652;23.364;2023-05-27T08:33:50;11.43;;;6.07;;
33190;SDS011;19554;42.652;23.364;2023-05-27T08:36:16;8.35;;;5.88;;
33190;SDS011;19554;42.652;23.364;2023-05-27T08:38:43;9.88;;;5.85;;
33190;SDS011;19554;42.652;23.364;2023-05-27T08:41:08;9.15;;;6.90;;
33190;SDS011;19554;42.652;23.364;2023-05-27T08:43:34;12.75;;;6.32;;
33190;SDS011;19554;42.652;23.364;2023-05-27T08:46:01;9.85;;;5.90;;
33190;SDS011;19554;42.652;23.364;2023-05-27T08:48:26;8.65;;;6.53;;
33190;SDS011;19554;42.652;23.364;2023-05-27T08:50:52;14.45;;;5.72;;
33190;SDS011;19554;42.652;23.364;2023-05-27T08:53:17;10.40;;;5.65;;
33190;SDS011;19554;42.652;23.364;2023-05-27T08:55:44;9.05;;;5.22;;
33190;SDS011;19554;42.652;23.364;2023-05-27T08:58:11;6.80;;;5.30;;
33190;SDS011;19554;42.652;23.364;2023-05-27T09:00:38;8.70;;;6.07;;
33190;SDS011;19554;42.652;23.364;2023-05-27T09:03:03;9.07;;;5.78;;
33190;SDS011;19554;42.652;23.364;2023-05-27T09:05:29;8.10;;;5.60;;
33190;SDS011;19554;42.652;23.364;2023-05-27T09:07:54;9.75;;;5.45;;
33190;SDS011;19554;42.652;23.364;2023-05-27T09:10:20;6.15;;;5.25;;
33190;SDS011;19554;42.652;23.364;2023-05-27T09:12:46;6.25;;;5.30;;
33190;SDS011;19554;42.652;23.364;2023-05-27T09:15:12;8.10;;;6.30;;
33190;SDS011;19554;42.652;23.364;2023-05-27T09:17:41;7.43;;;5.78;;
33190;SDS011;19554;42.652;23.364;2023-05-27T09:20:08;9.30;;;5.93;;
33190;SDS011;19554;42.652;23.364;2023-05-27T09:22:33;8.13;;;6.13;;
33190;SDS011;19554;42.652;23.364;2023-05-27T09:24:59;10.20;;;5.30;;
33190;SDS011;19554;42.652;23.364;2023-05-27T09:27:26;9.55;;;6.53;;
33190;SDS011;19554;42.652;23.364;2023-05-27T09:29:52;11.98;;;9.38;;
33190;SDS011;19554;42.652;23.364;2023-05-27T09:32:28;6.95;;;5.13;;
33190;SDS011;19554;42.652;23.364;2023-05-27T09:34:59;9.55;;;6.00;;
33190;SDS011;19554;42.652;23.364;2023-05-27T09:39:59;9.48;;;6.65;;
33190;SDS011;19554;42.652;23.364;2023-05-27T09:42:45;8.95;;;5.75;;
33190;SDS011;19554;42.652;23.364;2023-05-27T09:45:20;7.37;;;5.40;;
33190;SDS011;19554;42.652;23.364;2023-05-27T09:47:52;7.50;;;6.10;;
33190;SDS011;19554;42.652;23.364;2023-05-27T09:50:18;7.05;;;5.95;;
33190;SDS011;19554;42.652;23.364;2023-05-27T09:52:45;9.07;;;5.40;;
33190;SDS011;19554;42.652;23.364;2023-05-27T09:55:12;10.15;;;5.95;;
33190;SDS011;19554;42.652;23.364;2023-05-27T09:57:38;10.68;;;6.43;;
33190;SDS011;19554;42.652;23.364;2023-05-27T10:00:05;9.32;;;6.18;;
33190;SDS011;19554;42.652;23.364;2023-05-27T10:02:41;11.02;;;6.15;;
33190;SDS011;19554;42.652;23.364;2023-05-27T10:05:08;13.00;;;6.47;;
33190;SDS011;19554;42.652;23.364;2023-05-27T10:07:39;9.80;;;5.85;;
33190;SDS011;19554;42.652;23.364;2023-05-27T10:10:07;8.57;;;5.40;;
33190;SDS011;19554;42.652;23.364;2023-05-27T10:12:41;10.25;;;5.60;;
33190;SDS011;19554;42.652;23.364;2023-05-27T10:15:08;8.75;;;6.97;;
33190;SDS011;19554;42.652;23.364;2023-05-27T10:17:41;11.63;;;6.40;;
33190;SDS011;19554;42.652;23.364;2023-05-27T10:20:07;9.02;;;5.97;;
33190;SDS011;19554;42.652;23.364;2023-05-27T10:22:45;11.25;;;6.60;;
33190;SDS011;19554;42.652;23.364;2023-05-27T10:25:11;10.40;;;6.13;;
33190;SDS011;19554;42.652;23.364;2023-05-27T10:27:44;7.82;;;5.50;;
33190;SDS011;19554;42.652;23.364;2023-05-27T10:30:11;6.90;;;6.18;;
33190;SDS011;19554;42.652;23.364;2023-05-27T10:32:48;7.93;;;5.65;;
33190;SDS011;19554;42.652;23.364;2023-05-27T10:35:15;7.43;;;5.80;;
33190;SDS011;19554;42.652;23.364;2023-05-27T10:37:42;7.70;;;6.20;;
33190;SDS011;19554;42.652;23.364;2023-05-27T10:40:08;10.00;;;5.85;;
33190;SDS011;19554;42.652;23.364;2023-05-27T10:42:34;6.32;;;5.50;;
33190;SDS011;19554;42.652;23.364;2023-05-27T10:45:09;8.63;;;6.03;;
33190;SDS011;19554;42.652;23.364;2023-05-27T10:47:38;8.73;;;5.68;;
33190;SDS011;19554;42.652;23.364;2023-05-27T10:50:13;12.98;;;6.55;;
33190;SDS011;19554;42.652;23.364;2023-05-27T10:52:39;9.88;;;5.68;;
33190;SDS011;19554;42.652;23.364;2023-05-27T10:55:05;7.38;;;5.88;;
33190;SDS011;19554;42.652;23.364;2023-05-27T10:57:34;6.90;;;5.78;;
33190;SDS011;19554;42.652;23.364;2023-05-27T11:00:01;6.45;;;5.20;;
33190;SDS011;19554;42.652;23.364;2023-05-27T11:02:35;7.03;;;5.72;;
33190;SDS011;19554;42.652;23.364;2023-05-27T11:05:15;9.57;;;5.20;;
33190;SDS011;19554;42.652;23.364;2023-05-27T11:07:40;9.35;;;5.80;;
33190;SDS011;19554;42.652;23.364;2023-05-27T11:10:07;8.48;;;5.80;;
33190;SDS011;19554;42.652;23.364;2023-05-27T11:12:33;10.05;;;6.60;;
33190;SDS011;19554;42.652;23.364;2023-05-27T11:14:59;11.43;;;6.43;;
33190;SDS011;19554;42.652;23.364;2023-05-27T11:17:24;9.77;;;5.80;;
33190;SDS011;19554;42.652;23.364;2023-05-27T11:19:53;9.88;;;5.63;;
33190;SDS011;19554;42.652;23.364;2023-05-27T11:22:20;14.18;;;6.95;;
33190;SDS011;19554;42.652;23.364;2023-05-27T11:24:55;7.53;;;5.80;;
33190;SDS011;19554;42.652;23.364;2023-05-27T11:27:35;10.90;;;6.60;;
33190;SDS011;19554;42.652;23.364;2023-05-27T11:30:08;7.97;;;5.70;;
33190;SDS011;19554;42.652;23.364;2023-05-27T11:32:35;7.53;;;5.78;;
33190;SDS011;19554;42.652;23.364;2023-05-27T11:35:01;9.68;;;5.65;;
33190;SDS011;19554;42.652;23.364;2023-05-27T11:37:30;8.10;;;6.00;;
33190;SDS011;19554;42.652;23.364;2023-05-27T11:39:57;9.43;;;6.60;;
33190;SDS011;19554;42.652;23.364;2023-05-27T11:42:25;11.15;;;6.50;;
33190;SDS011;19554;42.652;23.364;2023-05-27T11:44:50;11.98;;;6.85;;
33190;SDS011;19554;42.652;23.364;2023-05-27T11:47:17;9.48;;;6.85;;
33190;SDS011;19554;42.652;23.364;2023-05-27T11:49:42;12.85;;;7.68;;
33190;SDS011;19554;42.652;23.364;2023-05-27T11:52:08;9.57;;;6.53;;
33190;SDS011;19554;42.652;23.364;2023-05-27T11:54:35;6.53;;;5.85;;
33190;SDS011;19554;42.652;23.364;2023-05-27T11:57:03;14.15;;;6.47;;
33190;SDS011;19554;42.652;23.364;2023-05-27T11:59:31;10.55;;;6.25;;
33190;SDS011;19554;42.652;23.364;2023-05-27T12:01:58;8.02;;;6.07;;
33190;SDS011;19554;42.652;23.364;2023-05-27T12:04:23;10.23;;;6.13;;
33190;SDS011;19554;42.652;23.364;2023-05-27T12:06:49;6.68;;;5.40;;
33190;SDS011;19554;42.652;23.364;2023-05-27T12:09:15;5.97;;;5.32;;
33190;SDS011;19554;42.652;23.364;2023-05-27T12:11:41;9.68;;;5.47;;
33190;SDS011;19554;42.652;23.364;2023-05-27T12:14:06;10.02;;;5.85;;
33190;SDS011;19554;42.652;23.364;2023-05-27T12:16:32;7.63;;;5.53;;
33190;SDS011;19554;42.652;23.364;2023-05-27T12:18:58;7.32;;;5.82;;
33190;SDS011;19554;42.652;23.364;2023-05-27T12:21:23;10.07;;;5.13;;
33190;SDS011;19554;42.652;23.364;2023-05-27T12:23:49;8.77;;;5.93;;
33190;SDS011;19554;42.652;23.364;2023-05-27T12:26:15;9.93;;;5.47;;
33190;SDS011;19554;42.652;23.364;2023-05-27T12:28:41;7.00;;;5.30;;
33190;SDS011;19554;42.652;23.364;2023-05-27T12:31:07;6.78;;;5.95;;
33190;SDS011;19554;42.652;23.364;2023-05-27T12:33:33;7.75;;;5.10;;
33190;SDS011;19554;42.652;23.364;2023-05-27T12:35:58;9.00;;;5.88;;
33190;SDS011;19554;42.652;23.364;2023-05-27T12:38:24;13.23;;;6.05;;
33190;SDS011;19554;42.652;23.364;2023-05-27T12:40:50;6.68;;;5.18;;
33190;SDS011;19554;42.652;23.364;2023-05-27T12:43:17;9.70;;;6.00;;
33190;SDS011;19554;42.652;23.364;2023-05-27T12:45:43;8.20;;;5.28;;
33190;SDS011;19554;42.652;23.364;2023-05-27T12:48:10;10.63;;;6.03;;
33190;SDS011;19554;42.652;23.364;2023-05-27T12:50:36;11.25;;;5.60;;
33190;SDS011;19554;42.652;23.364;2023-05-27T12:53:01;6.75;;;5.20;;
33190;SDS011;19554;42.652;23.364;2023-05-27T12:55:27;6.82;;;5.22;;
33190;SDS011;19554;42.652;23.364;2023-05-27T12:57:52;7.18;;;5.28;;
33190;SDS011;19554;42.652;23.364;2023-05-27T13:00:18;7.80;;;5.30;;
33190;SDS011;19554;42.652;23.364;2023-05-27T13:02:45;5.78;;;4.80;;
33190;SDS011;19554;42.652;23.364;2023-05-27T13:05:12;6.35;;;5.28;;
33190;SDS011;19554;42.652;23.364;2023-05-27T13:07:38;7.82;;;5.30;;
33190;SDS011;19554;42.652;23.364;2023-05-27T13:10:05;7.22;;;5.70;;
33190;SDS011;19554;42.652;23.364;2023-05-27T13:12:32;7.50;;;5.25;;
33190;SDS011;19554;42.652;23.364;2023-05-27T13:14:59;8.38;;;5.35;;
33190;SDS011;19554;42.652;23.364;2023-05-27T13:17:26;7.25;;;5.38;;
33190;SDS011;19554;42.652;23.364;2023-05-27T13:19:51;7.50;;;5.50;;
33190;SDS011;19554;42.652;23.364;2023-05-27T13:22:17;7.07;;;5.47;;
33190;SDS011;19554;42.652;23.364;2023-05-27T13:24:42;6.43;;;5.05;;
33190;SDS011;19554;42.652;23.364;2023-05-27T13:27:08;7.07;;;5.80;;
33190;SDS011;19554;42.652;23.364;2023-05-27T13:29:34;7.30;;;5.40;;
33190;SDS011;19554;42.652;23.364;2023-05-27T13:32:00;6.38;;;5.07;;
33190;SDS011;19554;42.652;23.364;2023-05-27T13:34:26;5.93;;;5.00;;
33190;SDS011;19554;42.652;23.364;2023-05-27T13:36:53;6.75;;;5.10;;
33190;SDS011;19554;42.652;23.364;2023-05-27T13:39:19;6.43;;;4.88;;
33190;SDS011;19554;42.652;23.364;2023-05-27T13:41:44;8.63;;;5.63;;
33190;SDS011;19554;42.652;23.364;2023-05-27T13:44:09;11.00;;;5.10;;
33190;SDS011;19554;42.652;23.364;2023-05-27T13:46:35;8.10;;;5.45;;
33190;SDS011;19554;42.652;23.364;2023-05-27T13:49:00;5.38;;;4.78;;
33190;SDS011;19554;42.652;23.364;2023-05-27T13:51:25;8.38;;;4.60;;
33190;SDS011;19554;42.652;23.364;2023-05-27T13:53:54;6.38;;;5.13;;
33190;SDS011;19554;42.652;23.364;2023-05-27T13:56:19;9.23;;;5.47;;
33190;SDS011;19554;42.652;23.364;2023-05-27T13:58:44;5.80;;;4.95;;
33190;SDS011;19554;42.652;23.364;2023-05-27T14:01:10;9.73;;;5.78;;
33190;SDS011;19554;42.652;23.364;2023-05-27T14:03:35;9.07;;;5.22;;
33190;SDS011;19554;42.652;23.364;2023-05-27T14:06:00;5.60;;;5.00;;
33190;SDS011;19554;42.652;23.364;2023-05-27T14:08:26;6.35;;;4.93;;
33190;SDS011;19554;42.652;23.364;2023-05-27T14:10:51;7.43;;;4.68;;
33190;SDS011;19554;42.652;23.364;2023-05-27T14:13:17;8.02;;;5.10;;
33190;SDS011;19554;42.652;23.364;2023-05-27T14:15:42;6.10;;;4.72;;
33190;SDS011;19554;42.652;23.364;2023-05-27T14:18:07;5.93;;;4.28;;
33190;SDS011;19554;42.652;23.364;2023-05-27T14:20:33;7.70;;;4.50;;
33190;SDS011;19554;42.652;23.364;2023-05-27T14:22:59;7.90;;;5.15;;
33190;SDS011;19554;42.652;23.364;2023-05-27T14:25:27;5.70;;;5.10;;
33190;SDS011;19554;42.652;23.364;2023-05-27T14:27:52;5.80;;;4.93;;
33190;SDS011;19554;42.652;23.364;2023-05-27T14:30:17;7.57;;;5.10;;
33190;SDS011;19554;42.652;23.364;2023-05-27T14:32:43;5.60;;;4.97;;
33190;SDS011;19554;42.652;23.364;2023-05-27T14:35:08;5.97;;;5.07;;